N1EP CYXU-CYZR
Flight info
| Callsign | N1EP |
|---|---|
| Flight time | N/A |
| Altitude | 6000 |
| Route | CYXU/27 DCT ODGEG ODGEG·RNAV/33 |
| Aircraft | BE36 |
Departure
| Time | N/A |
|---|---|
| Airport | London International Airport (CYXU) |
Arrival
| Time | 2026-05-03 20:26 |
|---|---|
| Airport | Chris Hadfield Airport (CYZR) |
| Time | Latitude | Longitude | Altitude | Speed | Heading |
|---|---|---|---|---|---|
| 2026-05-03 20:15 | 42.96348 | -81.90294 | 3977 ft | 135 kts | 256° |
| 2026-05-03 20:15 | 42.96104 | -81.91519 | 3973 ft | 132 kts | 256° |
| 2026-05-03 20:15 | 42.95901 | -81.92568 | 3973 ft | 133 kts | 255° |
| 2026-05-03 20:15 | 42.95655 | -81.93833 | 3980 ft | 133 kts | 255° |
| 2026-05-03 20:16 | 42.95415 | -81.95071 | 3975 ft | 136 kts | 256° |
| 2026-05-03 20:16 | 42.95171 | -81.96310 | 3968 ft | 134 kts | 255° |
| 2026-05-03 20:16 | 42.94934 | -81.97534 | 3966 ft | 133 kts | 255° |
| 2026-05-03 20:16 | 42.94694 | -81.98761 | 3864 ft | 134 kts | 255° |
| 2026-05-03 20:17 | 42.94453 | -81.99992 | 3762 ft | 135 kts | 255° |
| 2026-05-03 20:17 | 42.94211 | -82.01227 | 3648 ft | 134 kts | 255° |
| 2026-05-03 20:17 | 42.93971 | -82.02453 | 3554 ft | 134 kts | 255° |
| 2026-05-03 20:17 | 42.93731 | -82.03677 | 3451 ft | 133 kts | 255° |
| 2026-05-03 20:18 | 42.93493 | -82.04896 | 3347 ft | 132 kts | 255° |
| 2026-05-03 20:18 | 42.93256 | -82.06105 | 3248 ft | 132 kts | 255° |
| 2026-05-03 20:18 | 42.92825 | -82.07205 | 3149 ft | 136 kts | 231° |
| 2026-05-03 20:18 | 42.92161 | -82.08131 | 2952 ft | 138 kts | 232° |
| 2026-05-03 20:19 | 42.91502 | -82.09096 | 2729 ft | 140 kts | 231° |
| 2026-05-03 20:19 | 42.90839 | -82.10070 | 2493 ft | 141 kts | 231° |
| 2026-05-03 20:19 | 42.90165 | -82.11050 | 2237 ft | 142 kts | 231° |
| 2026-05-03 20:19 | 42.89496 | -82.12022 | 1983 ft | 142 kts | 231° |
| 2026-05-03 20:20 | 42.88845 | -82.12972 | 1966 ft | 133 kts | 232° |
| 2026-05-03 20:20 | 42.88264 | -82.13925 | 1965 ft | 129 kts | 245° |
| 2026-05-03 20:20 | 42.88113 | -82.15137 | 1963 ft | 128 kts | 272° |
| 2026-05-03 20:20 | 42.88412 | -82.16153 | 1953 ft | 111 kts | 295° |
| 2026-05-03 20:21 | 42.88956 | -82.16890 | 1952 ft | 109 kts | 304° |
| 2026-05-03 20:21 | 42.89498 | -82.17591 | 1945 ft | 108 kts | 304° |
| 2026-05-03 20:21 | 42.90040 | -82.18282 | 1949 ft | 106 kts | 303° |
| 2026-05-03 20:21 | 42.90577 | -82.18965 | 1949 ft | 105 kts | 303° |
| 2026-05-03 20:22 | 42.91109 | -82.19641 | 1949 ft | 103 kts | 304° |
| 2026-05-03 20:22 | 42.91631 | -82.20306 | 1945 ft | 102 kts | 303° |
| 2026-05-03 20:22 | 42.92150 | -82.20967 | 1943 ft | 103 kts | 303° |
| 2026-05-03 20:22 | 42.92673 | -82.21633 | 1948 ft | 103 kts | 303° |
| 2026-05-03 20:23 | 42.93202 | -82.22306 | 1950 ft | 105 kts | 304° |
| 2026-05-03 20:23 | 42.93742 | -82.22995 | 1952 ft | 107 kts | 305° |
| 2026-05-03 20:23 | 42.94288 | -82.23686 | 1953 ft | 104 kts | 305° |
| 2026-05-03 20:23 | 42.94812 | -82.24352 | 1878 ft | 103 kts | 303° |
| 2026-05-03 20:24 | 42.95335 | -82.25022 | 1740 ft | 103 kts | 304° |
| 2026-05-03 20:24 | 42.95857 | -82.25684 | 1609 ft | 104 kts | 305° |
| 2026-05-03 20:24 | 42.96393 | -82.26369 | 1452 ft | 106 kts | 306° |
| 2026-05-03 20:24 | 42.96934 | -82.27059 | 1302 ft | 105 kts | 306° |
| 2026-05-03 20:25 | 42.97448 | -82.27704 | 1163 ft | 92 kts | 304° |
| 2026-05-03 20:25 | 42.97907 | -82.28266 | 1092 ft | 90 kts | 304° |
| 2026-05-03 20:25 | 42.98363 | -82.28859 | 1017 ft | 88 kts | 310° |
| 2026-05-03 20:25 | 42.98802 | -82.29437 | 868 ft | 85 kts | 308° |
| 2026-05-03 20:26 | 42.99243 | -82.29990 | 745 ft | 87 kts | 306° |
| 2026-05-03 20:26 | 42.99654 | -82.30526 | 607 ft | 69 kts | 306° |
| 2026-05-03 20:26 | 42.99906 | -82.30863 | 596 ft | 29 kts | 317° |
| 2026-05-03 20:26 | 43.00046 | -82.31042 | 594 ft | 32 kts | 311° |
| 2026-05-03 20:27 | 43.00183 | -82.31227 | 594 ft | 24 kts | 317° |
| 2026-05-03 20:27 | 43.00241 | -82.31342 | 595 ft | 10 kts | 170° |
| 2026-05-03 20:27 | 43.00122 | -82.31193 | 594 ft | 21 kts | 141° |
| 2026-05-03 20:27 | 43.00053 | -82.31082 | 594 ft | 22 kts | 137° |
| 2026-05-03 20:28 | 42.99976 | -82.30970 | 594 ft | 17 kts | 134° |
| 2026-05-03 20:28 | 42.99837 | -82.30796 | 596 ft | 20 kts | 137° |
| 2026-05-03 20:28 | 42.99756 | -82.30826 | 595 ft | 10 kts | 230° |
| 2026-05-03 20:28 | 42.99722 | -82.30881 | 595 ft | 2 kts | 243° |
| 2026-05-03 20:29 | 42.99686 | -82.30874 | 595 ft | 14 kts | 102° |
| 2026-05-03 20:29 | 42.99699 | -82.30834 | 595 ft | 0 kts | 58° |